sensor_id;sensor_type;location;lat;lon;timestamp;temperature;humidity
50162;DHT22;36061;48.116;11.612;2024-01-11T00:02:26;-4.10;99.90
50162;DHT22;36061;48.116;11.612;2024-01-11T00:04:53;-4.10;99.90
50162;DHT22;36061;48.116;11.612;2024-01-11T00:07:20;-4.10;99.90
50162;DHT22;36061;48.116;11.612;2024-01-11T00:09:48;-4.20;99.90
50162;DHT22;36061;48.116;11.612;2024-01-11T00:12:15;-4.20;99.90
50162;DHT22;36061;48.116;11.612;2024-01-11T00:14:43;-4.20;99.90
50162;DHT22;36061;48.116;11.612;2024-01-11T00:17:10;-4.20;99.90
50162;DHT22;36061;48.116;11.612;2024-01-11T00:19:39;-4.30;99.90
50162;DHT22;36061;48.116;11.612;2024-01-11T00:22:06;-4.20;99.90
50162;DHT22;36061;48.116;11.612;2024-01-11T00:24:34;-4.20;99.90
50162;DHT22;36061;48.116;11.612;2024-01-11T00:27:01;-4.10;99.90
50162;DHT22;36061;48.116;11.612;2024-01-11T00:29:28;-4.10;99.90
50162;DHT22;36061;48.116;11.612;2024-01-11T00:31:56;-4.10;99.90
50162;DHT22;36061;48.116;11.612;2024-01-11T00:34:24;-4.20;99.90
50162;DHT22;36061;48.116;11.612;2024-01-11T00:36:53;-4.20;99.90
50162;DHT22;36061;48.116;11.612;2024-01-11T00:39:20;-4.20;99.90
50162;DHT22;36061;48.116;11.612;2024-01-11T00:41:47;-4.20;99.90
50162;DHT22;36061;48.116;11.612;2024-01-11T00:44:15;-4.20;99.90
50162;DHT22;36061;48.116;11.612;2024-01-11T00:46:42;-4.20;99.90
50162;DHT22;36061;48.116;11.612;2024-01-11T00:49:10;-4.20;99.90
50162;DHT22;36061;48.116;11.612;2024-01-11T00:51:37;-4.10;99.90
50162;DHT22;36061;48.116;11.612;2024-01-11T00:54:06;-4.10;99.90
50162;DHT22;36061;48.116;11.612;2024-01-11T00:56:34;-4.10;99.90
50162;DHT22;36061;48.116;11.612;2024-01-11T00:59:01;-4.10;99.90
50162;DHT22;36061;48.116;11.612;2024-01-11T01:01:30;-4.10;99.90
50162;DHT22;36061;48.116;11.612;2024-01-11T01:03:58;-4.10;99.90
50162;DHT22;36061;48.116;11.612;2024-01-11T01:06:25;-4.00;99.90
50162;DHT22;36061;48.116;11.612;2024-01-11T01:08:55;-4.00;99.90
50162;DHT22;36061;48.116;11.612;2024-01-11T01:11:24;-4.10;99.90
50162;DHT22;36061;48.116;11.612;2024-01-11T01:13:51;-4.10;99.90
50162;DHT22;36061;48.116;11.612;2024-01-11T01:16:18;-4.20;99.90
50162;DHT22;36061;48.116;11.612;2024-01-11T01:18:46;-4.20;99.90
50162;DHT22;36061;48.116;11.612;2024-01-11T01:21:13;-4.20;99.90
50162;DHT22;36061;48.116;11.612;2024-01-11T01:23:41;-4.20;99.90
50162;DHT22;36061;48.116;11.612;2024-01-11T01:26:08;-4.20;99.90
50162;DHT22;36061;48.116;11.612;2024-01-11T01:28:37;-4.20;99.90
50162;DHT22;36061;48.116;11.612;2024-01-11T01:31:05;-4.20;99.90
50162;DHT22;36061;48.116;11.612;2024-01-11T01:33:33;-4.30;99.90
50162;DHT22;36061;48.116;11.612;2024-01-11T01:36:00;-4.40;99.90
50162;DHT22;36061;48.116;11.612;2024-01-11T01:38:28;-4.40;99.90
50162;DHT22;36061;48.116;11.612;2024-01-11T01:40:56;-4.40;99.90
50162;DHT22;36061;48.116;11.612;2024-01-11T01:43:23;-4.40;99.90
50162;DHT22;36061;48.116;11.612;2024-01-11T01:45:52;-4.40;99.90
50162;DHT22;36061;48.116;11.612;2024-01-11T01:48:20;-4.40;99.90
50162;DHT22;36061;48.116;11.612;2024-01-11T01:50:48;-4.40;99.90
50162;DHT22;36061;48.116;11.612;2024-01-11T01:53:17;-4.40;99.90
50162;DHT22;36061;48.116;11.612;2024-01-11T01:55:45;-4.40;99.90
50162;DHT22;36061;48.116;11.612;2024-01-11T01:58:15;-4.40;99.90
50162;DHT22;36061;48.116;11.612;2024-01-11T02:00:43;-4.50;99.90
50162;DHT22;36061;48.116;11.612;2024-01-11T02:03:15;-4.50;99.90
50162;DHT22;36061;48.116;11.612;2024-01-11T02:05:43;-4.50;99.90
50162;DHT22;36061;48.116;11.612;2024-01-11T02:08:16;-4.50;99.90
50162;DHT22;36061;48.116;11.612;2024-01-11T02:10:45;-4.50;99.90
50162;DHT22;36061;48.116;11.612;2024-01-11T02:13:12;-4.60;99.90
50162;DHT22;36061;48.116;11.612;2024-01-11T02:15:40;-4.50;99.90
50162;DHT22;36061;48.116;11.612;2024-01-11T02:18:07;-4.50;99.90
50162;DHT22;36061;48.116;11.612;2024-01-11T02:20:36;-4.50;99.90
50162;DHT22;36061;48.116;11.612;2024-01-11T02:23:05;-4.50;99.90
50162;DHT22;36061;48.116;11.612;2024-01-11T02:25:36;-4.60;99.90
50162;DHT22;36061;48.116;11.612;2024-01-11T02:28:04;-4.60;99.90
50162;DHT22;36061;48.116;11.612;2024-01-11T02:30:32;-4.60;99.90
50162;DHT22;36061;48.116;11.612;2024-01-11T02:33:00;-4.60;99.90
50162;DHT22;36061;48.116;11.612;2024-01-11T02:35:28;-4.60;99.90
50162;DHT22;36061;48.116;11.612;2024-01-11T02:37:57;-4.60;99.90
50162;DHT22;36061;48.116;11.612;2024-01-11T02:40:26;-4.60;99.90
50162;DHT22;36061;48.116;11.612;2024-01-11T02:42:54;-4.60;99.90
50162;DHT22;36061;48.116;11.612;2024-01-11T02:45:22;-4.50;99.90
50162;DHT22;36061;48.116;11.612;2024-01-11T02:47:49;-4.60;99.90
50162;DHT22;36061;48.116;11.612;2024-01-11T02:50:17;-4.50;99.90
50162;DHT22;36061;48.116;11.612;2024-01-11T02:52:44;-4.50;99.90
50162;DHT22;36061;48.116;11.612;2024-01-11T02:55:12;-4.50;99.90
50162;DHT22;36061;48.116;11.612;2024-01-11T02:57:39;-4.50;99.90
50162;DHT22;36061;48.116;11.612;2024-01-11T03:00:09;-4.50;99.90
50162;DHT22;36061;48.116;11.612;2024-01-11T03:02:37;-4.50;99.90
50162;DHT22;36061;48.116;11.612;2024-01-11T03:05:05;-4.50;99.90
50162;DHT22;36061;48.116;11.612;2024-01-11T03:07:32;-4.50;99.90
50162;DHT22;36061;48.116;11.612;2024-01-11T03:10:00;-4.40;99.90
50162;DHT22;36061;48.116;11.612;2024-01-11T03:12:27;-4.50;99.90
50162;DHT22;36061;48.116;11.612;2024-01-11T03:14:55;-4.50;99.90
50162;DHT22;36061;48.116;11.612;2024-01-11T03:17:23;-4.50;99.90
50162;DHT22;36061;48.116;11.612;2024-01-11T03:19:51;-4.50;99.90
50162;DHT22;36061;48.116;11.612;2024-01-11T03:22:18;-4.60;99.90
50162;DHT22;36061;48.116;11.612;2024-01-11T03:24:46;-4.60;99.90
50162;DHT22;36061;48.116;11.612;2024-01-11T03:27:13;-4.70;99.90
50162;DHT22;36061;48.116;11.612;2024-01-11T03:29:40;-4.70;99.90
50162;DHT22;36061;48.116;11.612;2024-01-11T03:32:08;-4.70;99.90
50162;DHT22;36061;48.116;11.612;2024-01-11T03:34:40;-4.60;99.90
50162;DHT22;36061;48.116;11.612;2024-01-11T03:37:07;-4.60;99.90
50162;DHT22;36061;48.116;11.612;2024-01-11T03:39:35;-4.60;99.90
50162;DHT22;36061;48.116;11.612;2024-01-11T03:42:02;-4.60;99.90
50162;DHT22;36061;48.116;11.612;2024-01-11T03:44:30;-4.60;99.90
50162;DHT22;36061;48.116;11.612;2024-01-11T03:46:57;-4.60;99.90
50162;DHT22;36061;48.116;11.612;2024-01-11T03:49:24;-4.60;99.90
50162;DHT22;36061;48.116;11.612;2024-01-11T03:51:53;-4.60;99.90
50162;DHT22;36061;48.116;11.612;2024-01-11T03:54:20;-4.60;99.90
50162;DHT22;36061;48.116;11.612;2024-01-11T03:56:48;-4.60;99.90
50162;DHT22;36061;48.116;11.612;2024-01-11T03:59:15;-4.60;99.90
50162;DHT22;36061;48.116;11.612;2024-01-11T04:01:43;-4.60;99.90
50162;DHT22;36061;48.116;11.612;2024-01-11T04:04:10;-4.50;99.90
50162;DHT22;36061;48.116;11.612;2024-01-11T04:06:38;-4.50;99.90
50162;DHT22;36061;48.116;11.612;2024-01-11T04:09:07;-4.50;99.90
50162;DHT22;36061;48.116;11.612;2024-01-11T04:11:34;-4.50;99.90
50162;DHT22;36061;48.116;11.612;2024-01-11T04:14:02;-4.40;99.90
50162;DHT22;36061;48.116;11.612;2024-01-11T04:16:29;-4.30;99.90
50162;DHT22;36061;48.116;11.612;2024-01-11T04:18:56;-4.30;99.90
50162;DHT22;36061;48.116;11.612;2024-01-11T04:21:24;-4.40;99.90
50162;DHT22;36061;48.116;11.612;2024-01-11T04:23:54;-4.40;99.90
50162;DHT22;36061;48.116;11.612;2024-01-11T04:26:23;-4.50;99.90
50162;DHT22;36061;48.116;11.612;2024-01-11T04:28:51;-4.50;99.90
50162;DHT22;36061;48.116;11.612;2024-01-11T04:31:19;-4.50;99.90
50162;DHT22;36061;48.116;11.612;2024-01-11T04:33:47;-4.50;99.90
50162;DHT22;36061;48.116;11.612;2024-01-11T04:36:14;-4.40;99.90
50162;DHT22;36061;48.116;11.612;2024-01-11T04:38:41;-4.50;99.90
50162;DHT22;36061;48.116;11.612;2024-01-11T04:41:11;-4.40;99.90
50162;DHT22;36061;48.116;11.612;2024-01-11T04:43:41;-4.50;99.90
50162;DHT22;36061;48.116;11.612;2024-01-11T04:46:15;-4.50;99.90
50162;DHT22;36061;48.116;11.612;2024-01-11T04:48:43;-4.50;99.90
50162;DHT22;36061;48.116;11.612;2024-01-11T04:51:11;-4.50;99.90
50162;DHT22;36061;48.116;11.612;2024-01-11T04:53:40;-4.50;99.90
50162;DHT22;36061;48.116;11.612;2024-01-11T04:56:08;-4.50;99.90
50162;DHT22;36061;48.116;11.612;2024-01-11T04:58:36;-4.40;99.90
50162;DHT22;36061;48.116;11.612;2024-01-11T05:01:06;-4.40;99.90
50162;DHT22;36061;48.116;11.612;2024-01-11T05:03:35;-4.40;99.90
50162;DHT22;36061;48.116;11.612;2024-01-11T05:06:03;-4.40;99.90
50162;DHT22;36061;48.116;11.612;2024-01-11T05:08:31;-4.40;99.90
50162;DHT22;36061;48.116;11.612;2024-01-11T05:10:59;-4.40;99.90
50162;DHT22;36061;48.116;11.612;2024-01-11T05:13:26;-4.40;99.90
50162;DHT22;36061;48.116;11.612;2024-01-11T05:15:54;-4.40;99.90
50162;DHT22;36061;48.116;11.612;2024-01-11T05:18:22;-4.40;99.90
50162;DHT22;36061;48.116;11.612;2024-01-11T05:20:50;-4.40;99.90
50162;DHT22;36061;48.116;11.612;2024-01-11T05:23:17;-4.40;99.90
50162;DHT22;36061;48.116;11.612;2024-01-11T05:25:45;-4.40;99.90
50162;DHT22;36061;48.116;11.612;2024-01-11T05:28:12;-4.40;99.90
50162;DHT22;36061;48.116;11.612;2024-01-11T05:30:40;-4.40;99.90
50162;DHT22;36061;48.116;11.612;2024-01-11T05:33:07;-4.50;99.90
50162;DHT22;36061;48.116;11.612;2024-01-11T05:35:36;-4.50;99.90
50162;DHT22;36061;48.116;11.612;2024-01-11T05:38:03;-4.50;99.90
50162;DHT22;36061;48.116;11.612;2024-01-11T05:40:31;-4.50;99.90
50162;DHT22;36061;48.116;11.612;2024-01-11T05:42:59;-4.60;99.90
50162;DHT22;36061;48.116;11.612;2024-01-11T05:45:26;-4.60;99.90
50162;DHT22;36061;48.116;11.612;2024-01-11T05:47:53;-4.60;99.90
50162;DHT22;36061;48.116;11.612;2024-01-11T05:50:21;-4.60;99.90
50162;DHT22;36061;48.116;11.612;2024-01-11T05:52:49;-4.70;99.90
50162;DHT22;36061;48.116;11.612;2024-01-11T05:55:18;-4.70;99.90
50162;DHT22;36061;48.116;11.612;2024-01-11T05:57:45;-4.70;99.90
50162;DHT22;36061;48.116;11.612;2024-01-11T06:00:13;-4.60;99.90
50162;DHT22;36061;48.116;11.612;2024-01-11T06:02:41;-4.60;99.90
50162;DHT22;36061;48.116;11.612;2024-01-11T06:05:09;-4.60;99.90
50162;DHT22;36061;48.116;11.612;2024-01-11T06:07:38;-4.60;99.90
50162;DHT22;36061;48.116;11.612;2024-01-11T06:10:07;-4.70;99.90
50162;DHT22;36061;48.116;11.612;2024-01-11T06:12:35;-4.80;99.90
50162;DHT22;36061;48.116;11.612;2024-01-11T06:15:03;-4.80;99.90
50162;DHT22;36061;48.116;11.612;2024-01-11T06:17:31;-4.80;99.90
50162;DHT22;36061;48.116;11.612;2024-01-11T06:19:58;-4.90;99.90
50162;DHT22;36061;48.116;11.612;2024-01-11T06:22:26;-4.90;99.90
50162;DHT22;36061;48.116;11.612;2024-01-11T06:24:53;-5.00;99.90
50162;DHT22;36061;48.116;11.612;2024-01-11T06:27:22;-4.90;99.90
50162;DHT22;36061;48.116;11.612;2024-01-11T06:29:49;-5.00;99.90
50162;DHT22;36061;48.116;11.612;2024-01-11T06:32:17;-5.00;99.90
50162;DHT22;36061;48.116;11.612;2024-01-11T06:34:44;-4.70;99.90
50162;DHT22;36061;48.116;11.612;2024-01-11T06:37:13;-2.10;99.90
50162;DHT22;36061;48.116;11.612;2024-01-11T06:39:41;0.20;99.90
50162;DHT22;36061;48.116;11.612;2024-01-11T06:42:08;1.10;99.90
50162;DHT22;36061;48.116;11.612;2024-01-11T06:44:37;1.00;99.90
50162;DHT22;36061;48.116;11.612;2024-01-11T06:47:05;0.30;99.90
50162;DHT22;36061;48.116;11.612;2024-01-11T06:49:33;-0.50;99.90
50162;DHT22;36061;48.116;11.612;2024-01-11T06:52:00;-1.20;99.90
50162;DHT22;36061;48.116;11.612;2024-01-11T06:54:28;-1.90;99.90
50162;DHT22;36061;48.116;11.612;2024-01-11T06:56:57;-2.50;99.90
50162;DHT22;36061;48.116;11.612;2024-01-11T06:59:24;-3.00;99.90
50162;DHT22;36061;48.116;11.612;2024-01-11T07:01:53;-3.30;99.90
50162;DHT22;36061;48.116;11.612;2024-01-11T07:04:20;-3.60;99.90
50162;DHT22;36061;48.116;11.612;2024-01-11T07:06:48;-3.80;99.90
50162;DHT22;36061;48.116;11.612;2024-01-11T07:09:15;-3.90;99.90
50162;DHT22;36061;48.116;11.612;2024-01-11T07:11:43;-4.10;99.90
50162;DHT22;36061;48.116;11.612;2024-01-11T07:14:11;-4.20;99.90
50162;DHT22;36061;48.116;11.612;2024-01-11T07:16:38;-4.40;99.90
50162;DHT22;36061;48.116;11.612;2024-01-11T07:19:07;-4.50;99.90
50162;DHT22;36061;48.116;11.612;2024-01-11T07:21:34;-4.50;99.90
50162;DHT22;36061;48.116;11.612;2024-01-11T07:24:02;-4.60;99.90
50162;DHT22;36061;48.116;11.612;2024-01-11T07:26:30;-4.60;99.90
50162;DHT22;36061;48.116;11.612;2024-01-11T07:28:57;-4.70;99.90
50162;DHT22;36061;48.116;11.612;2024-01-11T07:31:24;-4.70;99.90
50162;DHT22;36061;48.116;11.612;2024-01-11T07:33:52;-4.80;99.90
50162;DHT22;36061;48.116;11.612;2024-01-11T07:36:21;-4.70;99.90
50162;DHT22;36061;48.116;11.612;2024-01-11T07:38:48;-4.70;99.90
50162;DHT22;36061;48.116;11.612;2024-01-11T07:41:16;-4.70;99.90
50162;DHT22;36061;48.116;11.612;2024-01-11T07:43:43;-4.70;99.90
50162;DHT22;36061;48.116;11.612;2024-01-11T07:46:11;-4.70;99.90
50162;DHT22;36061;48.116;11.612;2024-01-11T07:48:38;-4.60;99.90
50162;DHT22;36061;48.116;11.612;2024-01-11T07:51:06;-4.60;99.90
50162;DHT22;36061;48.116;11.612;2024-01-11T07:53:35;-4.50;99.90
50162;DHT22;36061;48.116;11.612;2024-01-11T07:56:02;-4.50;99.90
50162;DHT22;36061;48.116;11.612;2024-01-11T07:58:30;-4.50;99.90
50162;DHT22;36061;48.116;11.612;2024-01-11T08:00:57;-4.40;99.90
50162;DHT22;36061;48.116;11.612;2024-01-11T08:03:24;-4.40;99.90
50162;DHT22;36061;48.116;11.612;2024-01-11T08:05:53;-4.30;99.90
50162;DHT22;36061;48.116;11.612;2024-01-11T08:08:21;-4.30;99.90
50162;DHT22;36061;48.116;11.612;2024-01-11T08:10:50;-4.30;99.90
50162;DHT22;36061;48.116;11.612;2024-01-11T08:13:17;-4.30;99.90
50162;DHT22;36061;48.116;11.612;2024-01-11T08:15:45;-4.30;99.90
50162;DHT22;36061;48.116;11.612;2024-01-11T08:18:12;-4.30;99.90
50162;DHT22;36061;48.116;11.612;2024-01-11T08:20:40;-4.20;99.90
50162;DHT22;36061;48.116;11.612;2024-01-11T08:23:08;-4.20;99.90
50162;DHT22;36061;48.116;11.612;2024-01-11T08:25:35;-4.20;99.90
50162;DHT22;36061;48.116;11.612;2024-01-11T08:28:05;-4.10;99.90
50162;DHT22;36061;48.116;11.612;2024-01-11T08:30:33;-4.10;99.90
50162;DHT22;36061;48.116;11.612;2024-01-11T08:33:00;-4.00;99.90
50162;DHT22;36061;48.116;11.612;2024-01-11T08:35:27;-3.90;99.90
50162;DHT22;36061;48.116;11.612;2024-01-11T08:37:55;-3.70;99.90
50162;DHT22;36061;48.116;11.612;2024-01-11T08:40:23;-3.80;99.90
50162;DHT22;36061;48.116;11.612;2024-01-11T08:42:51;-3.80;99.90
50162;DHT22;36061;48.116;11.612;2024-01-11T08:45:20;-3.80;99.90
50162;DHT22;36061;48.116;11.612;2024-01-11T08:47:48;-3.70;99.90
50162;DHT22;36061;48.116;11.612;2024-01-11T08:50:16;-3.70;99.90
50162;DHT22;36061;48.116;11.612;2024-01-11T08:52:43;-3.60;99.90
50162;DHT22;36061;48.116;11.612;2024-01-11T08:55:11;-3.60;99.90
50162;DHT22;36061;48.116;11.612;2024-01-11T08:57:39;-3.60;99.90
50162;DHT22;36061;48.116;11.612;2024-01-11T09:00:07;-3.70;99.90
50162;DHT22;36061;48.116;11.612;2024-01-11T09:02:35;-3.60;99.90
50162;DHT22;36061;48.116;11.612;2024-01-11T09:05:03;-3.60;99.90
50162;DHT22;36061;48.116;11.612;2024-01-11T09:07:33;-3.60;99.90
50162;DHT22;36061;48.116;11.612;2024-01-11T09:10:00;-3.60;99.90
50162;DHT22;36061;48.116;11.612;2024-01-11T09:12:27;-3.60;99.90
50162;DHT22;36061;48.116;11.612;2024-01-11T09:14:55;-3.60;99.90
50162;DHT22;36061;48.116;11.612;2024-01-11T09:17:22;-3.60;99.90
50162;DHT22;36061;48.116;11.612;2024-01-11T09:19:51;-3.60;99.90
50162;DHT22;36061;48.116;11.612;2024-01-11T09:22:18;-3.60;99.90
50162;DHT22;36061;48.116;11.612;2024-01-11T09:24:46;-3.50;99.90
50162;DHT22;36061;48.116;11.612;2024-01-11T09:27:13;-3.50;99.90
50162;DHT22;36061;48.116;11.612;2024-01-11T09:29:43;-3.50;99.90
50162;DHT22;36061;48.116;11.612;2024-01-11T09:32:11;-3.50;99.90
50162;DHT22;36061;48.116;11.612;2024-01-11T09:34:39;-3.50;99.90
50162;DHT22;36061;48.116;11.612;2024-01-11T09:37:07;-3.50;99.90
50162;DHT22;36061;48.116;11.612;2024-01-11T09:39:35;-3.50;99.90
50162;DHT22;36061;48.116;11.612;2024-01-11T09:42:06;-3.60;99.90
50162;DHT22;36061;48.116;11.612;2024-01-11T09:44:36;-3.70;99.90
50162;DHT22;36061;48.116;11.612;2024-01-11T09:47:06;-3.70;99.90
50162;DHT22;36061;48.116;11.612;2024-01-11T09:49:36;-3.80;99.90
50162;DHT22;36061;48.116;11.612;2024-01-11T09:52:07;-3.70;99.90
50162;DHT22;36061;48.116;11.612;2024-01-11T09:54:38;-3.70;99.90
50162;DHT22;36061;48.116;11.612;2024-01-11T09:57:07;-3.60;99.90
50162;DHT22;36061;48.116;11.612;2024-01-11T09:59:36;-3.60;99.90
50162;DHT22;36061;48.116;11.612;2024-01-11T10:02:05;-3.60;99.90
50162;DHT22;36061;48.116;11.612;2024-01-11T10:04:35;-3.50;99.90
50162;DHT22;36061;48.116;11.612;2024-01-11T10:07:04;-3.50;99.90
50162;DHT22;36061;48.116;11.612;2024-01-11T10:09:34;-3.50;99.90
50162;DHT22;36061;48.116;11.612;2024-01-11T10:12:02;-3.50;99.90
50162;DHT22;36061;48.116;11.612;2024-01-11T10:14:30;-3.50;99.90
50162;DHT22;36061;48.116;11.612;2024-01-11T10:16:58;-3.40;99.90
50162;DHT22;36061;48.116;11.612;2024-01-11T10:19:26;-3.30;99.90
50162;DHT22;36061;48.116;11.612;2024-01-11T10:21:53;-2.90;99.90
50162;DHT22;36061;48.116;11.612;2024-01-11T10:24:21;-3.30;99.90
50162;DHT22;36061;48.116;11.612;2024-01-11T10:26:55;-3.30;99.90
50162;DHT22;36061;48.116;11.612;2024-01-11T10:29:27;-3.20;99.90
50162;DHT22;36061;48.116;11.612;2024-01-11T10:31:55;-3.10;99.90
50162;DHT22;36061;48.116;11.612;2024-01-11T10:34:23;-3.10;99.90
50162;DHT22;36061;48.116;11.612;2024-01-11T10:36:51;-3.00;99.90
50162;DHT22;36061;48.116;11.612;2024-01-11T10:39:23;-3.00;99.90
50162;DHT22;36061;48.116;11.612;2024-01-11T10:41:56;-2.90;99.90
50162;DHT22;36061;48.116;11.612;2024-01-11T10:44:27;-2.90;99.90
50162;DHT22;36061;48.116;11.612;2024-01-11T10:46:58;-2.80;99.90
50162;DHT22;36061;48.116;11.612;2024-01-11T10:49:26;-2.80;99.90
50162;DHT22;36061;48.116;11.612;2024-01-11T10:51:58;-2.70;99.90
50162;DHT22;36061;48.116;11.612;2024-01-11T10:54:27;-2.60;99.90
50162;DHT22;36061;48.116;11.612;2024-01-11T10:56:58;-2.60;99.90
50162;DHT22;36061;48.116;11.612;2024-01-11T10:59:27;-2.70;99.90
50162;DHT22;36061;48.116;11.612;2024-01-11T11:01:57;-2.70;99.90
50162;DHT22;36061;48.116;11.612;2024-01-11T11:04:25;-2.70;99.90
50162;DHT22;36061;48.116;11.612;2024-01-11T11:06:55;-2.60;99.90
50162;DHT22;36061;48.116;11.612;2024-01-11T11:09:24;-2.60;99.90
50162;DHT22;36061;48.116;11.612;2024-01-11T11:11:58;-2.60;99.90
50162;DHT22;36061;48.116;11.612;2024-01-11T11:14:25;-2.60;99.90
50162;DHT22;36061;48.116;11.612;2024-01-11T11:16:53;-2.60;99.90
50162;DHT22;36061;48.116;11.612;2024-01-11T11:19:21;-2.60;99.90
50162;DHT22;36061;48.116;11.612;2024-01-11T11:21:48;-2.60;99.90
50162;DHT22;36061;48.116;11.612;2024-01-11T11:24:17;-2.60;99.90
50162;DHT22;36061;48.116;11.612;2024-01-11T11:26:44;-2.50;99.90
50162;DHT22;36061;48.116;11.612;2024-01-11T11:29:15;-2.50;99.90
50162;DHT22;36061;48.116;11.612;2024-01-11T11:31:43;-2.50;99.90
50162;DHT22;36061;48.116;11.612;2024-01-11T11:34:12;-2.40;99.90
50162;DHT22;36061;48.116;11.612;2024-01-11T11:36:40;-2.40;99.90
50162;DHT22;36061;48.116;11.612;2024-01-11T11:39:10;-2.30;99.90
50162;DHT22;36061;48.116;11.612;2024-01-11T11:41:38;-2.20;99.90
50162;DHT22;36061;48.116;11.612;2024-01-11T11:44:07;-2.20;99.90
50162;DHT22;36061;48.116;11.612;2024-01-11T11:46:40;-2.10;99.90
50162;DHT22;36061;48.116;11.612;2024-01-11T11:49:07;-2.10;99.90
50162;DHT22;36061;48.116;11.612;2024-01-11T11:51:39;-2.10;99.90
50162;DHT22;36061;48.116;11.612;2024-01-11T11:54:08;-2.10;99.90
50162;DHT22;36061;48.116;11.612;2024-01-11T11:56:36;-2.00;99.90
50162;DHT22;36061;48.116;11.612;2024-01-11T11:59:04;-2.00;99.90
50162;DHT22;36061;48.116;11.612;2024-01-11T12:01:35;-2.00;99.90
50162;DHT22;36061;48.116;11.612;2024-01-11T12:04:04;-2.00;99.90
50162;DHT22;36061;48.116;11.612;2024-01-11T12:06:31;-2.00;99.90
50162;DHT22;36061;48.116;11.612;2024-01-11T12:08:59;-2.00;99.90
50162;DHT22;36061;48.116;11.612;2024-01-11T12:11:27;-2.10;99.90
50162;DHT22;36061;48.116;11.612;2024-01-11T12:13:55;-2.10;99.90
50162;DHT22;36061;48.116;11.612;2024-01-11T12:16:23;-2.20;99.90
50162;DHT22;36061;48.116;11.612;2024-01-11T12:18:51;-2.20;99.90
50162;DHT22;36061;48.116;11.612;2024-01-11T12:21:21;-2.20;99.90
50162;DHT22;36061;48.116;11.612;2024-01-11T12:23:48;-2.20;99.90
50162;DHT22;36061;48.116;11.612;2024-01-11T12:26:16;-2.20;99.90
50162;DHT22;36061;48.116;11.612;2024-01-11T12:28:47;-2.20;99.90
50162;DHT22;36061;48.116;11.612;2024-01-11T12:31:16;-2.20;99.90
50162;DHT22;36061;48.116;11.612;2024-01-11T12:33:45;-1.90;99.90
50162;DHT22;36061;48.116;11.612;2024-01-11T12:36:14;-2.10;99.90
50162;DHT22;36061;48.116;11.612;2024-01-11T12:38:47;-2.00;99.90
50162;DHT22;36061;48.116;11.612;2024-01-11T12:41:15;-2.00;99.90
50162;DHT22;36061;48.116;11.612;2024-01-11T12:43:42;-1.90;99.90
50162;DHT22;36061;48.116;11.612;2024-01-11T12:46:09;-1.90;99.90
50162;DHT22;36061;48.116;11.612;2024-01-11T12:48:36;-1.90;99.90
50162;DHT22;36061;48.116;11.612;2024-01-11T12:51:04;-1.90;99.90
50162;DHT22;36061;48.116;11.612;2024-01-11T12:53:32;-1.80;99.90
50162;DHT22;36061;48.116;11.612;2024-01-11T12:56:05;-1.80;99.90
50162;DHT22;36061;48.116;11.612;2024-01-11T12:58:36;-1.90;99.90
50162;DHT22;36061;48.116;11.612;2024-01-11T13:01:04;-1.90;99.90
50162;DHT22;36061;48.116;11.612;2024-01-11T13:03:58;-2.00;99.90
50162;DHT22;36061;48.116;11.612;2024-01-11T13:06:29;-1.90;99.90
50162;DHT22;36061;48.116;11.612;2024-01-11T13:08:57;-1.90;99.90
50162;DHT22;36061;48.116;11.612;2024-01-11T13:11:26;-1.90;99.90
50162;DHT22;36061;48.116;11.612;2024-01-11T13:13:53;-1.90;99.90
50162;DHT22;36061;48.116;11.612;2024-01-11T13:16:21;-1.90;99.90
50162;DHT22;36061;48.116;11.612;2024-01-11T13:18:48;-1.80;99.90
50162;DHT22;36061;48.116;11.612;2024-01-11T13:21:16;-1.80;99.90
50162;DHT22;36061;48.116;11.612;2024-01-11T13:23:43;-1.80;99.90
50162;DHT22;36061;48.116;11.612;2024-01-11T13:26:11;-1.60;99.90
50162;DHT22;36061;48.116;11.612;2024-01-11T13:28:39;-1.60;99.90
50162;DHT22;36061;48.116;11.612;2024-01-11T13:31:07;-1.70;99.90
50162;DHT22;36061;48.116;11.612;2024-01-11T13:33:37;-1.80;99.90
50162;DHT22;36061;48.116;11.612;2024-01-11T13:36:06;-1.90;99.90
50162;DHT22;36061;48.116;11.612;2024-01-11T13:38:33;-1.90;99.90
50162;DHT22;36061;48.116;11.612;2024-01-11T13:41:01;-2.00;99.90
50162;DHT22;36061;48.116;11.612;2024-01-11T13:43:28;-2.00;99.90
50162;DHT22;36061;48.116;11.612;2024-01-11T13:45:57;-1.90;99.90
50162;DHT22;36061;48.116;11.612;2024-01-11T13:48:25;-1.90;99.90
50162;DHT22;36061;48.116;11.612;2024-01-11T13:50:52;-1.90;99.90
50162;DHT22;36061;48.116;11.612;2024-01-11T13:53:19;-1.90;99.90
50162;DHT22;36061;48.116;11.612;2024-01-11T13:55:47;-2.00;99.90
50162;DHT22;36061;48.116;11.612;2024-01-11T13:58:14;-2.00;99.90
50162;DHT22;36061;48.116;11.612;2024-01-11T14:00:43;-2.00;99.90
50162;DHT22;36061;48.116;11.612;2024-01-11T14:03:12;-2.00;99.90
50162;DHT22;36061;48.116;11.612;2024-01-11T14:05:40;-2.10;99.90
50162;DHT22;36061;48.116;11.612;2024-01-11T14:08:07;-2.10;99.90
50162;DHT22;36061;48.116;11.612;2024-01-11T14:10:35;-2.10;99.90
50162;DHT22;36061;48.116;11.612;2024-01-11T14:13:03;-2.10;99.90
50162;DHT22;36061;48.116;11.612;2024-01-11T14:15:30;-2.10;99.90
50162;DHT22;36061;48.116;11.612;2024-01-11T14:17:58;-2.10;99.90
50162;DHT22;36061;48.116;11.612;2024-01-11T14:20:27;-2.10;99.90
50162;DHT22;36061;48.116;11.612;2024-01-11T14:22:54;-2.10;99.90
50162;DHT22;36061;48.116;11.612;2024-01-11T14:25:23;-2.20;99.90
50162;DHT22;36061;48.116;11.612;2024-01-11T14:27:52;-2.10;99.90
50162;DHT22;36061;48.116;11.612;2024-01-11T14:30:19;-2.20;99.90
50162;DHT22;36061;48.116;11.612;2024-01-11T14:32:48;-2.20;99.90
50162;DHT22;36061;48.116;11.612;2024-01-11T14:35:15;-2.20;99.90
50162;DHT22;36061;48.116;11.612;2024-01-11T14:37:45;-2.20;99.90
50162;DHT22;36061;48.116;11.612;2024-01-11T14:40:12;-2.20;99.90
50162;DHT22;36061;48.116;11.612;2024-01-11T14:42:40;-2.20;99.90
50162;DHT22;36061;48.116;11.612;2024-01-11T14:45:08;-2.20;99.90
50162;DHT22;36061;48.116;11.612;2024-01-11T14:47:36;-2.20;99.90
50162;DHT22;36061;48.116;11.612;2024-01-11T14:50:05;-2.20;99.90
50162;DHT22;36061;48.116;11.612;2024-01-11T14:52:35;-2.20;99.90
50162;DHT22;36061;48.116;11.612;2024-01-11T14:55:06;-2.20;99.90
50162;DHT22;36061;48.116;11.612;2024-01-11T14:57:36;-2.20;99.90
50162;DHT22;36061;48.116;11.612;2024-01-11T15:00:03;-2.30;99.90
50162;DHT22;36061;48.116;11.612;2024-01-11T15:02:33;-2.30;99.90
50162;DHT22;36061;48.116;11.612;2024-01-11T15:05:00;-2.30;99.90
50162;DHT22;36061;48.116;11.612;2024-01-11T15:07:28;-2.30;99.90
50162;DHT22;36061;48.116;11.612;2024-01-11T15:09:55;-2.40;99.90
50162;DHT22;36061;48.116;11.612;2024-01-11T15:12:24;-2.40;99.90
50162;DHT22;36061;48.116;11.612;2024-01-11T15:14:51;-2.40;99.90
50162;DHT22;36061;48.116;11.612;2024-01-11T15:17:19;-2.40;99.90
50162;DHT22;36061;48.116;11.612;2024-01-11T15:19:47;-2.50;99.90
50162;DHT22;36061;48.116;11.612;2024-01-11T15:22:14;-2.60;99.90